createdAt,value
2019-04-27T00:00:49.333Z,11.37
2019-04-27T00:02:13.462Z,11.30
2019-04-27T00:03:35.040Z,11.36
2019-04-27T00:04:48.687Z,11.31
2019-04-27T00:05:53.552Z,11.22
2019-04-27T00:07:00.004Z,11.21
2019-04-27T00:08:15.432Z,11.24
2019-04-27T00:09:27.192Z,11.14
2019-04-27T00:10:33.591Z,11.18
2019-04-27T00:11:42.094Z,11.19
2019-04-27T00:12:46.129Z,11.22
2019-04-27T00:13:50.910Z,11.09
2019-04-27T00:14:57.159Z,11.16
2019-04-27T00:16:13.472Z,11.14
2019-04-27T00:17:44.830Z,11.18
2019-04-27T00:18:39.627Z,11.17
2019-04-27T00:19:58.052Z,11.23
2019-04-27T00:21:04.150Z,11.22
2019-04-27T00:22:10.821Z,11.31
2019-04-27T00:23:31.948Z,11.30
2019-04-27T00:24:37.984Z,11.27
2019-04-27T00:25:43.867Z,11.14
2019-04-27T00:26:48.437Z,11.20
2019-04-27T00:27:53.502Z,11.29
2019-04-27T00:28:58.320Z,11.27
2019-04-27T00:30:03.856Z,11.25
2019-04-27T00:31:09.023Z,11.25
2019-04-27T00:32:13.563Z,11.23
2019-04-27T00:33:18.032Z,11.29
2019-04-27T00:34:23.633Z,11.25
2019-04-27T00:35:29.806Z,11.21
2019-04-27T00:36:53.446Z,11.21
2019-04-27T00:38:00.008Z,11.27
2019-04-27T00:39:26.303Z,11.15
2019-04-27T00:40:33.554Z,11.09
2019-04-27T00:41:38.329Z,10.98
2019-04-27T00:42:44.110Z,10.94
2019-04-27T00:43:48.627Z,10.94
2019-04-27T00:44:54.254Z,10.96
2019-04-27T00:45:58.698Z,10.94
2019-04-27T00:47:04.872Z,10.86
2019-04-27T00:48:09.669Z,10.86
2019-04-27T00:49:14.137Z,10.80
2019-04-27T00:50:18.895Z,10.78
2019-04-27T00:51:23.643Z,10.81
2019-04-27T00:52:28.175Z,10.78
2019-04-27T00:53:33.515Z,10.77
2019-04-27T00:54:38.096Z,10.74
2019-04-27T00:55:47.415Z,10.64
2019-04-27T00:56:53.597Z,10.69
2019-04-27T00:58:04.038Z,10.74
2019-04-27T00:59:17.525Z,10.66
2019-04-27T01:00:39.568Z,10.62
2019-04-27T01:01:51.435Z,10.76
2019-04-27T01:03:03.900Z,10.65
2019-04-27T01:04:19.156Z,10.68
2019-04-27T01:05:25.244Z,10.72
2019-04-27T01:06:29.716Z,10.68
2019-04-27T01:07:34.180Z,10.59
2019-04-27T01:08:38.936Z,10.59
2019-04-27T01:09:43.496Z,10.57
2019-04-27T01:10:48.933Z,10.56
2019-04-27T01:11:53.541Z,10.53
2019-04-27T01:12:57.946Z,10.53
2019-04-27T01:14:03.888Z,10.64
2019-04-27T01:15:08.542Z,10.63
2019-04-27T01:16:15.641Z,10.63
2019-04-27T01:17:19.697Z,10.60
2019-04-27T01:18:24.432Z,10.56
2019-04-27T01:19:30.196Z,10.52
2019-04-27T01:20:34.691Z,10.43
2019-04-27T01:21:39.700Z,10.55
2019-04-27T01:22:45.157Z,10.56
2019-04-27T01:23:49.617Z,10.56
2019-04-27T01:24:54.177Z,10.49
2019-04-27T01:26:03.216Z,10.52
2019-04-27T01:27:24.125Z,10.51
2019-04-27T01:28:32.902Z,10.40
2019-04-27T01:29:39.222Z,10.47
2019-04-27T01:30:46.854Z,10.40
2019-04-27T01:31:51.600Z,10.45
2019-04-27T01:32:56.068Z,10.49
2019-04-27T01:34:00.536Z,10.57
2019-04-27T01:35:05.671Z,10.52
2019-04-27T01:36:10.747Z,10.52
2019-04-27T01:37:16.961Z,10.55
2019-04-27T01:38:21.429Z,10.54
2019-04-27T01:39:26.863Z,10.59
2019-04-27T01:40:31.353Z,10.65
2019-04-27T01:41:36.110Z,10.65
2019-04-27T01:42:41.832Z,10.57
2019-04-27T01:43:46.306Z,10.66
2019-04-27T01:44:51.118Z,10.64
2019-04-27T01:45:56.028Z,10.65
2019-04-27T01:47:00.489Z,10.57
2019-04-27T01:48:05.027Z,10.65
2019-04-27T01:49:09.926Z,10.64
2019-04-27T01:50:14.564Z,10.67
2019-04-27T01:51:20.945Z,10.64
2019-04-27T01:52:25.507Z,10.62
2019-04-27T01:53:30.437Z,10.60
2019-04-27T01:54:35.004Z,10.59
2019-04-27T01:55:40.779Z,10.59
2019-04-27T01:56:45.338Z,10.58
2019-04-27T01:57:50.089Z,10.44
2019-04-27T01:58:54.551Z,10.57
2019-04-27T01:59:59.162Z,10.61
2019-04-27T02:01:24.418Z,10.59
2019-04-27T02:02:30.806Z,10.57
2019-04-27T02:03:52.608Z,10.51
2019-04-27T02:05:14.676Z,10.53
2019-04-27T02:06:20.789Z,10.36
2019-04-27T02:07:25.651Z,10.36
2019-04-27T02:08:30.380Z,10.47
2019-04-27T02:09:34.848Z,10.38
2019-04-27T02:10:39.688Z,10.49
2019-04-27T02:11:44.158Z,10.48
2019-04-27T02:12:48.893Z,10.46
2019-04-27T02:13:53.651Z,10.49
2019-04-27T02:14:58.869Z,10.56
2019-04-27T02:16:03.379Z,10.56
2019-04-27T02:17:09.603Z,10.52
2019-04-27T02:18:14.464Z,10.48
2019-04-27T02:19:19.496Z,10.49
2019-04-27T02:20:24.297Z,10.49
2019-04-27T02:21:29.479Z,10.46
2019-04-27T02:22:33.928Z,10.46
2019-04-27T02:23:39.437Z,10.42
2019-04-27T02:24:44.202Z,10.50
2019-04-27T02:25:49.677Z,10.47
2019-04-27T02:26:54.526Z,10.41
2019-04-27T02:28:00.627Z,10.41
2019-04-27T02:29:09.487Z,10.30
2019-04-27T02:30:21.533Z,10.30
2019-04-27T02:31:45.524Z,10.42
2019-04-27T02:33:12.263Z,10.47
2019-04-27T02:34:21.773Z,10.49
2019-04-27T02:35:26.236Z,10.51
2019-04-27T02:36:30.748Z,10.51
2019-04-27T02:37:35.647Z,10.48
2019-04-27T02:38:40.709Z,10.52
2019-04-27T02:39:45.239Z,10.55
2019-04-27T02:40:59.815Z,10.47
2019-04-27T02:42:03.942Z,10.40
2019-04-27T02:43:10.484Z,10.46
2019-04-27T02:44:22.601Z,10.43
2019-04-27T02:45:27.066Z,10.46
2019-04-27T02:46:31.747Z,10.46
2019-04-27T02:47:36.486Z,10.43
2019-04-27T02:48:55.339Z,10.28
2019-04-27T02:49:47.401Z,10.39
2019-04-27T02:50:53.502Z,10.42
2019-04-27T02:52:05.381Z,10.37
2019-04-27T02:53:11.127Z,10.37
2019-04-27T02:54:16.076Z,10.29
2019-04-27T02:55:20.546Z,10.40
2019-04-27T02:56:25.191Z,10.37
2019-04-27T02:57:30.433Z,10.40
2019-04-27T02:58:34.930Z,10.40
2019-04-27T02:59:40.036Z,10.44
2019-04-27T03:00:44.928Z,10.44
2019-04-27T03:02:02.898Z,10.45
2019-04-27T03:03:10.171Z,10.51
2019-04-27T03:04:14.839Z,10.36
2019-04-27T03:05:22.374Z,10.36
2019-04-27T03:06:26.838Z,10.46
2019-04-27T03:07:31.610Z,10.45
2019-04-27T03:08:36.072Z,10.40
2019-04-27T03:09:40.546Z,10.52
2019-04-27T03:10:45.019Z,10.51
2019-04-27T03:11:50.084Z,10.48
2019-04-27T03:13:00.110Z,10.51
2019-04-27T03:14:15.107Z,10.51
2019-04-27T03:15:22.879Z,10.51
2019-04-27T03:16:33.256Z,10.53
2019-04-27T03:17:49.473Z,10.55
2019-04-27T03:19:10.213Z,10.53
2019-04-27T03:20:03.709Z,10.53
2019-04-27T03:21:12.775Z,10.54
2019-04-27T03:22:20.069Z,10.53
2019-04-27T03:23:24.800Z,10.51
2019-04-27T03:24:46.677Z,10.49
2019-04-27T03:25:52.780Z,10.44
2019-04-27T03:27:00.500Z,10.33
2019-04-27T03:28:10.525Z,10.30
2019-04-27T03:29:14.515Z,10.30
2019-04-27T03:30:22.963Z,10.34
2019-04-27T03:31:25.580Z,10.35
2019-04-27T03:32:31.658Z,10.29
2019-04-27T03:33:36.482Z,10.29
2019-04-27T03:34:42.060Z,10.36
2019-04-27T03:35:46.940Z,10.37
2019-04-27T03:36:51.858Z,10.35
2019-04-27T03:37:56.328Z,10.38
2019-04-27T03:39:00.797Z,10.38
2019-04-27T03:40:10.259Z,10.36
2019-04-27T03:41:14.180Z,10.29
2019-04-27T03:42:20.750Z,10.30
2019-04-27T03:43:24.915Z,10.29
2019-04-27T03:44:32.050Z,10.27
2019-04-27T03:45:36.024Z,10.13
2019-04-27T03:46:41.739Z,10.13
2019-04-27T03:47:46.512Z,10.09
2019-04-27T03:48:51.141Z,10.08
2019-04-27T03:49:55.670Z,10.08
2019-04-27T03:51:01.779Z,10.09
2019-04-27T03:52:09.631Z,10.09
2019-04-27T03:53:29.805Z,10.21
2019-04-27T03:54:50.373Z,10.19
2019-04-27T03:56:01.391Z,10.16
2019-04-27T03:57:09.933Z,10.12
2019-04-27T03:58:21.777Z,10.12
2019-04-27T03:59:34.055Z,10.15
2019-04-27T04:00:39.830Z,10.15
2019-04-27T04:01:44.411Z,10.17
2019-04-27T04:02:50.224Z,10.12
2019-04-27T04:03:55.164Z,10.14
2019-04-27T04:04:59.945Z,10.12
2019-04-27T04:06:04.845Z,10.16
2019-04-27T04:07:15.581Z,10.10
2019-04-27T04:08:20.385Z,10.13
2019-04-27T04:09:26.482Z,10.09
2019-04-27T04:10:32.912Z,10.12
2019-04-27T04:11:45.376Z,10.13
2019-04-27T04:12:56.381Z,10.07
2019-04-27T04:14:02.404Z,9.98
2019-04-27T04:15:10.010Z,10.09
2019-04-27T04:16:32.381Z,10.03
2019-04-27T04:17:40.226Z,10.09
2019-04-27T04:19:00.346Z,10.02
2019-04-27T04:20:06.585Z,9.94
2019-04-27T04:21:11.052Z,10.05
2019-04-27T04:22:15.531Z,10.05
2019-04-27T04:23:20.616Z,9.95
2019-04-27T04:24:29.342Z,9.95
2019-04-27T04:25:33.383Z,10.06
2019-04-27T04:26:40.264Z,10.09
2019-04-27T04:27:44.312Z,9.99
2019-04-27T04:28:50.006Z,10.08
2019-04-27T04:29:54.923Z,10.03
2019-04-27T04:31:00.497Z,9.99
2019-04-27T04:32:05.576Z,9.99
2019-04-27T04:33:10.597Z,10.01
2019-04-27T04:34:15.123Z,10.01
2019-04-27T04:35:22.226Z,10.09
2019-04-27T04:36:26.708Z,10.10
2019-04-27T04:37:31.154Z,10.08
2019-04-27T04:38:36.011Z,10.06
2019-04-27T04:39:40.747Z,10.06
2019-04-27T04:40:46.862Z,9.97
2019-04-27T04:41:55.743Z,10.07
2019-04-27T04:43:07.600Z,10.07
2019-04-27T04:44:21.127Z,10.03
2019-04-27T04:45:27.219Z,10.02
2019-04-27T04:46:33.326Z,10.04
2019-04-27T04:47:45.448Z,10.04
2019-04-27T04:48:50.442Z,9.97
2019-04-27T04:50:10.380Z,9.93
2019-04-27T04:51:01.052Z,9.92
2019-04-27T04:52:05.790Z,9.93
2019-04-27T04:53:12.574Z,9.95
2019-04-27T04:54:16.408Z,9.95
2019-04-27T04:55:20.889Z,9.94
2019-04-27T04:56:25.341Z,9.94
2019-04-27T04:57:29.997Z,9.88
2019-04-27T04:58:34.536Z,9.92
2019-04-27T04:59:39.161Z,9.92
2019-04-27T05:00:43.845Z,9.92
2019-04-27T05:01:49.913Z,9.95
2019-04-27T05:02:54.548Z,9.97
2019-04-27T05:03:59.129Z,9.97
2019-04-27T05:05:05.087Z,10.00
2019-04-27T05:06:09.853Z,10.00
2019-04-27T05:07:14.322Z,10.00
2019-04-27T05:08:19.143Z,10.05
2019-04-27T05:09:23.726Z,10.04
2019-04-27T05:10:28.864Z,10.05
2019-04-27T05:11:34.373Z,10.04
2019-04-27T05:12:38.837Z,10.07
2019-04-27T05:13:43.295Z,9.96
2019-04-27T05:14:48.906Z,9.96
2019-04-27T05:15:53.797Z,10.08
2019-04-27T05:16:59.174Z,10.17
2019-04-27T05:18:04.091Z,10.20
2019-04-27T05:19:11.095Z,10.20
2019-04-27T05:20:26.213Z,10.24
2019-04-27T05:21:32.884Z,10.22
2019-04-27T05:22:37.353Z,10.20
2019-04-27T05:23:42.102Z,10.24
2019-04-27T05:24:49.330Z,10.30
2019-04-27T05:25:53.865Z,10.30
2019-04-27T05:26:59.032Z,10.27
2019-04-27T05:28:03.952Z,10.33
2019-04-27T05:29:09.225Z,10.31
2019-04-27T05:30:13.750Z,10.43
2019-04-27T05:31:19.511Z,10.44
2019-04-27T05:32:24.363Z,10.53
2019-04-27T05:33:28.829Z,10.56
2019-04-27T05:34:33.289Z,10.53
2019-04-27T05:35:40.634Z,10.56
2019-04-27T05:36:48.784Z,10.62
2019-04-27T05:37:50.381Z,10.59
2019-04-27T05:38:54.844Z,10.64
2019-04-27T05:39:59.318Z,10.68
2019-04-27T05:41:03.871Z,10.74
2019-04-27T05:42:12.557Z,10.73
2019-04-27T05:43:16.288Z,10.77
2019-04-27T05:44:25.736Z,10.79
2019-04-27T05:45:57.070Z,10.90
2019-04-27T05:47:05.315Z,10.93
2019-04-27T05:48:11.845Z,10.87
2019-04-27T05:49:18.799Z,10.94
2019-04-27T05:50:35.514Z,11.03
2019-04-27T05:51:36.651Z,11.08
2019-04-27T05:52:36.603Z,10.98
2019-04-27T05:53:41.069Z,11.01
2019-04-27T05:54:45.705Z,10.93
2019-04-27T05:55:50.188Z,10.93
2019-04-27T05:56:54.657Z,10.96
2019-04-27T05:57:59.281Z,10.84
2019-04-27T05:59:03.828Z,10.83
2019-04-27T06:00:09.280Z,10.91
2019-04-27T06:01:13.762Z,11.06
2019-04-27T06:02:20.760Z,11.15
2019-04-27T06:03:24.390Z,11.18
2019-04-27T06:04:29.227Z,11.19
2019-04-27T06:05:33.683Z,11.21
2019-04-27T06:06:39.883Z,11.06
2019-04-27T06:07:44.412Z,11.16
2019-04-27T06:08:49.548Z,11.21
2019-04-27T06:09:54.008Z,11.22
2019-04-27T06:10:59.319Z,11.27
2019-04-27T06:12:03.879Z,11.18
2019-04-27T06:13:10.611Z,11.23
2019-04-27T06:14:14.507Z,11.18
2019-04-27T06:15:19.856Z,11.18
2019-04-27T06:16:24.433Z,11.24
2019-04-27T06:17:29.894Z,11.17
2019-04-27T06:18:34.872Z,11.21
2019-04-27T06:19:39.336Z,11.34
2019-04-27T06:20:53.323Z,11.37
2019-04-27T06:21:50.149Z,11.40
2019-04-27T06:22:54.548Z,11.52
2019-04-27T06:23:59.092Z,11.53
2019-04-27T06:25:04.362Z,11.45
2019-04-27T06:26:11.671Z,11.47
2019-04-27T06:27:14.982Z,11.52
2019-04-27T06:28:19.733Z,11.51
2019-04-27T06:29:24.553Z,11.52
2019-04-27T06:30:29.335Z,11.61
2019-04-27T06:31:34.076Z,11.62
2019-04-27T06:32:39.564Z,11.69
2019-04-27T06:33:44.184Z,11.73
2019-04-27T06:34:48.987Z,11.72
2019-04-27T06:35:53.480Z,11.77
2019-04-27T06:36:59.944Z,11.79
2019-04-27T06:38:04.562Z,11.77
2019-04-27T06:39:09.929Z,11.76
2019-04-27T06:40:14.899Z,11.76
2019-04-27T06:41:19.379Z,11.88
2019-04-27T06:42:23.871Z,12.02
2019-04-27T06:43:29.424Z,12.14
2019-04-27T06:44:33.983Z,12.29
2019-04-27T06:45:38.855Z,12.39
2019-04-27T06:46:43.416Z,12.28
2019-04-27T06:47:48.837Z,12.35
2019-04-27T06:48:54.045Z,12.44
2019-04-27T06:49:58.786Z,12.64
2019-04-27T06:51:05.678Z,12.70
2019-04-27T06:52:09.608Z,12.63
2019-04-27T06:53:14.072Z,12.68
2019-04-27T06:54:19.767Z,12.73
2019-04-27T06:55:25.076Z,12.72
2019-04-27T06:56:29.941Z,12.70
2019-04-27T06:57:34.714Z,12.83
2019-04-27T06:58:40.737Z,12.89
2019-04-27T06:59:45.379Z,12.77
2019-04-27T07:00:50.221Z,12.75
2019-04-27T07:01:55.040Z,12.64
2019-04-27T07:02:59.768Z,12.51
2019-04-27T07:04:04.252Z,12.56
2019-04-27T07:05:09.112Z,12.59
2019-04-27T07:06:13.568Z,12.65
2019-04-27T07:07:19.468Z,12.73
2019-04-27T07:08:24.068Z,12.53
2019-04-27T07:09:29.649Z,12.60
2019-04-27T07:10:34.143Z,12.67
2019-04-27T07:11:39.382Z,12.57
2019-04-27T07:12:44.058Z,12.63
2019-04-27T07:13:49.789Z,12.64
2019-04-27T07:14:55.194Z,12.62
2019-04-27T07:15:59.788Z,12.60
2019-04-27T07:17:04.233Z,12.49
2019-04-27T07:18:09.717Z,12.53
2019-04-27T07:19:14.654Z,12.57
2019-04-27T07:20:19.536Z,12.46
2019-04-27T07:21:24.884Z,12.46
2019-04-27T07:22:29.954Z,12.56
2019-04-27T07:23:38.924Z,12.58
2019-04-27T07:24:48.705Z,12.70
2019-04-27T07:25:53.600Z,12.78
2019-04-27T07:26:59.665Z,12.76
2019-04-27T07:28:04.671Z,12.87
2019-04-27T07:29:09.718Z,12.84
2019-04-27T07:30:14.472Z,12.80
2019-04-27T07:31:19.364Z,12.92
2019-04-27T07:32:23.809Z,12.89
2019-04-27T07:33:29.679Z,12.99
2019-04-27T07:34:35.117Z,12.95
2019-04-27T07:35:39.590Z,13.13
2019-04-27T07:36:44.349Z,13.18
2019-04-27T07:37:49.152Z,13.26
2019-04-27T07:38:53.629Z,13.26
2019-04-27T07:39:59.151Z,13.44
2019-04-27T07:41:04.074Z,13.44
2019-04-27T07:42:15.364Z,13.54
2019-04-27T07:43:30.077Z,13.67
2019-04-27T07:44:36.334Z,13.58
2019-04-27T07:45:41.481Z,13.52
2019-04-27T07:46:47.578Z,13.44
2019-04-27T07:47:53.997Z,13.42
2019-04-27T07:48:59.464Z,13.38
2019-04-27T07:50:05.054Z,13.37
2019-04-27T07:51:09.520Z,13.34
2019-04-27T07:52:14.003Z,13.34
2019-04-27T07:53:19.351Z,13.42
2019-04-27T07:54:23.839Z,13.44
2019-04-27T07:55:28.908Z,13.51
2019-04-27T07:56:33.745Z,13.62
2019-04-27T07:57:39.786Z,13.71
2019-04-27T07:58:44.764Z,13.83
2019-04-27T07:59:50.238Z,13.67
2019-04-27T08:00:54.844Z,13.72
2019-04-27T08:01:59.342Z,13.66
2019-04-27T08:03:03.819Z,13.58
2019-04-27T08:04:09.115Z,13.61
2019-04-27T08:05:14.988Z,13.65
2019-04-27T08:06:19.451Z,13.67
2019-04-27T08:07:23.990Z,13.67
2019-04-27T08:08:28.669Z,13.79
2019-04-27T08:09:33.404Z,14.20
2019-04-27T08:10:39.211Z,14.30
2019-04-27T08:11:43.869Z,14.39
2019-04-27T08:12:49.852Z,14.42
2019-04-27T08:13:54.687Z,14.12
2019-04-27T08:15:00.066Z,14.59
2019-04-27T08:16:04.581Z,14.76
2019-04-27T08:17:09.738Z,14.62
2019-04-27T08:18:14.304Z,14.57
2019-04-27T08:19:19.619Z,14.61
2019-04-27T08:20:24.184Z,14.79
2019-04-27T08:21:28.962Z,14.89
2019-04-27T08:22:33.776Z,15.05
2019-04-27T08:23:39.405Z,14.87
2019-04-27T08:24:44.276Z,14.74
2019-04-27T08:25:49.027Z,14.60
2019-04-27T08:27:01.117Z,14.77
2019-04-27T08:28:10.454Z,14.78
2019-04-27T08:29:18.395Z,14.88
2019-04-27T08:30:24.619Z,14.89
2019-04-27T08:31:42.311Z,14.83
2019-04-27T08:32:49.726Z,14.97
2019-04-27T08:33:54.385Z,15.31
2019-04-27T08:34:59.463Z,15.54
2019-04-27T08:36:04.287Z,15.49
2019-04-27T08:37:09.274Z,15.67
2019-04-27T08:38:14.745Z,15.61
2019-04-27T08:39:19.246Z,15.62
2019-04-27T08:40:24.047Z,15.70
2019-04-27T08:41:29.544Z,16.00
2019-04-27T08:42:34.068Z,16.13
2019-04-27T08:43:39.144Z,16.05
2019-04-27T08:44:43.595Z,15.90
2019-04-27T08:45:48.914Z,16.25
2019-04-27T08:46:53.439Z,16.46
2019-04-27T08:47:59.547Z,16.47
2019-04-27T08:49:05.118Z,16.34
2019-04-27T08:50:09.831Z,16.02
2019-04-27T08:51:14.612Z,15.64
2019-04-27T08:52:19.457Z,15.60
2019-04-27T08:53:24.212Z,15.42
2019-04-27T08:54:29.479Z,15.42
2019-04-27T08:55:34.095Z,15.47
2019-04-27T08:56:39.616Z,15.43
2019-04-27T08:57:44.372Z,15.62
2019-04-27T08:58:49.663Z,15.61
2019-04-27T08:59:55.276Z,15.92
2019-04-27T09:00:59.740Z,16.19
2019-04-27T09:02:04.276Z,15.90
2019-04-27T09:03:09.523Z,16.17
2019-04-27T09:04:14.869Z,16.37
2019-04-27T09:05:21.283Z,16.55
2019-04-27T09:06:25.702Z,16.51
2019-04-27T09:07:31.935Z,16.53
2019-04-27T09:08:41.261Z,16.59
2019-04-27T09:09:49.697Z,16.73
2019-04-27T09:10:59.002Z,16.26
2019-04-27T09:12:21.173Z,16.33
2019-04-27T09:13:43.996Z,16.33
2019-04-27T09:15:04.370Z,16.47
2019-04-27T09:16:22.515Z,16.44
2019-04-27T09:17:31.591Z,16.64
2019-04-27T09:18:36.350Z,16.88
2019-04-27T09:19:45.203Z,16.82
2019-04-27T09:20:54.206Z,16.65
2019-04-27T09:22:15.812Z,16.65
2019-04-27T09:23:16.528Z,16.86
2019-04-27T09:24:21.002Z,16.87
2019-04-27T09:25:25.780Z,16.70
2019-04-27T09:26:30.418Z,16.89
2019-04-27T09:27:35.181Z,17.34
2019-04-27T09:28:39.941Z,17.29
2019-04-27T09:29:44.437Z,17.15
2019-04-27T09:30:49.793Z,17.30
2019-04-27T09:31:54.651Z,17.11
2019-04-27T09:32:59.577Z,17.18
2019-04-27T09:34:05.570Z,17.56
2019-04-27T09:35:10.282Z,17.54
2019-04-27T09:36:16.569Z,17.57
2019-04-27T09:37:21.079Z,17.37
2019-04-27T09:38:26.440Z,17.62
2019-04-27T09:39:31.397Z,17.65
2019-04-27T09:40:36.130Z,17.78
2019-04-27T09:41:40.755Z,17.96
2019-04-27T09:42:46.380Z,17.91
2019-04-27T09:43:50.883Z,17.75
2019-04-27T09:44:55.887Z,18.00
2019-04-27T09:46:00.295Z,17.84
2019-04-27T09:47:06.123Z,17.55
2019-04-27T09:48:10.711Z,17.41
2019-04-27T09:49:15.786Z,17.56
2019-04-27T09:50:20.681Z,17.56
2019-04-27T09:51:25.681Z,17.65
2019-04-27T09:52:30.724Z,17.77
2019-04-27T09:53:36.468Z,17.82
2019-04-27T09:54:41.050Z,17.56
2019-04-27T09:55:46.862Z,17.65
2019-04-27T09:56:51.686Z,17.52
2019-04-27T09:57:56.897Z,17.16
2019-04-27T09:59:01.506Z,16.99
2019-04-27T10:00:09.665Z,16.87
2019-04-27T10:01:16.375Z,17.01
2019-04-27T10:02:21.243Z,17.12
2019-04-27T10:03:26.646Z,17.23
2019-04-27T10:04:32.414Z,17.96
2019-04-27T10:05:36.934Z,17.85
2019-04-27T10:06:41.429Z,18.01
2019-04-27T10:07:47.582Z,17.94
2019-04-27T10:08:53.512Z,18.02
2019-04-27T10:09:57.983Z,17.86
2019-04-27T10:11:02.760Z,17.88
2019-04-27T10:12:07.650Z,17.75
2019-04-27T10:13:12.590Z,17.50
2019-04-27T10:14:17.036Z,17.52
2019-04-27T10:15:21.507Z,17.70
2019-04-27T10:16:29.866Z,17.80
2019-04-27T10:17:34.329Z,17.98
2019-04-27T10:18:38.802Z,18.17
2019-04-27T10:19:43.277Z,18.50
2019-04-27T10:20:58.996Z,18.32
2019-04-27T10:21:53.956Z,18.43
2019-04-27T10:22:58.424Z,18.42
2019-04-27T10:24:02.890Z,18.65
2019-04-27T10:25:10.552Z,18.50
2019-04-27T10:26:15.801Z,18.12
2019-04-27T10:27:20.280Z,18.11
2019-04-27T10:28:25.039Z,18.29
2019-04-27T10:29:29.507Z,18.25
2019-04-27T10:30:35.372Z,18.41
2019-04-27T10:31:41.597Z,18.61
2019-04-27T10:32:46.366Z,18.33
2019-04-27T10:33:50.829Z,18.37
2019-04-27T10:34:55.296Z,18.20
2019-04-27T10:35:59.766Z,17.82
2019-04-27T10:37:06.013Z,17.95
2019-04-27T10:38:10.964Z,18.41
2019-04-27T10:39:17.065Z,18.55
2019-04-27T10:40:21.572Z,18.78
2019-04-27T10:41:26.072Z,18.51
2019-04-27T10:42:30.896Z,18.08
2019-04-27T10:43:35.365Z,17.96
2019-04-27T10:44:39.831Z,17.76
2019-04-27T10:45:46.297Z,17.55
2019-04-27T10:46:50.865Z,17.45
2019-04-27T10:47:56.272Z,17.68
2019-04-27T10:49:00.777Z,17.52
2019-04-27T10:50:09.076Z,17.54
2019-04-27T10:51:13.836Z,17.62
2019-04-27T10:52:18.321Z,17.74
2019-04-27T10:53:23.074Z,18.35
2019-04-27T10:54:27.541Z,18.80
2019-04-27T10:55:32.610Z,19.00
2019-04-27T10:56:37.110Z,18.86
2019-04-27T10:57:41.573Z,18.71
2019-04-27T10:58:46.197Z,18.75
2019-04-27T10:59:50.670Z,18.53
2019-04-27T11:00:59.425Z,18.85
2019-04-27T11:02:04.271Z,18.98
2019-04-27T11:03:09.031Z,18.64
2019-04-27T11:04:15.931Z,18.69
2019-04-27T11:05:23.521Z,18.42
2019-04-27T11:06:29.697Z,18.46
2019-04-27T11:07:38.608Z,18.71
2019-04-27T11:08:43.075Z,18.54
2019-04-27T11:09:47.910Z,18.46
2019-04-27T11:10:52.380Z,18.55
2019-04-27T11:11:57.499Z,18.86
2019-04-27T11:13:01.962Z,19.31
2019-04-27T11:14:06.945Z,19.45
2019-04-27T11:15:12.064Z,19.47
2019-04-27T11:16:16.598Z,19.55
2019-04-27T11:17:21.240Z,19.92
2019-04-27T11:18:25.907Z,20.23
2019-04-27T11:19:30.497Z,20.21
2019-04-27T11:20:36.272Z,19.97
2019-04-27T11:21:40.802Z,19.69
2019-04-27T11:22:46.498Z,20.05
2019-04-27T11:23:51.323Z,20.05
2019-04-27T11:24:56.372Z,19.45
2019-04-27T11:26:02.455Z,19.18
2019-04-27T11:27:07.746Z,19.27
2019-04-27T11:28:12.281Z,19.41
2019-04-27T11:29:17.128Z,19.08
2019-04-27T11:30:22.035Z,18.72
2019-04-27T11:31:26.507Z,18.73
2019-04-27T11:32:31.022Z,19.15
2019-04-27T11:33:36.340Z,19.23
2019-04-27T11:35:00.824Z,18.83
2019-04-27T11:36:18.870Z,19.20
2019-04-27T11:37:24.990Z,19.60
2019-04-27T11:38:29.747Z,19.63
2019-04-27T11:39:35.934Z,19.16
2019-04-27T11:40:40.452Z,19.18
2019-04-27T11:41:44.921Z,19.26
2019-04-27T11:42:49.411Z,19.50
2019-04-27T11:43:54.165Z,19.24
2019-04-27T11:44:58.638Z,19.05
2019-04-27T11:46:03.097Z,18.98
2019-04-27T11:47:07.887Z,19.20
2019-04-27T11:48:12.665Z,19.40
2019-04-27T11:49:17.128Z,19.73
2019-04-27T11:50:21.959Z,19.68
2019-04-27T11:51:26.767Z,19.86
2019-04-27T11:52:32.478Z,19.87
2019-04-27T11:53:37.306Z,19.96
2019-04-27T11:54:42.089Z,19.90
2019-04-27T11:55:47.024Z,20.60
2019-04-27T11:56:51.814Z,20.59
2019-04-27T11:57:57.221Z,20.28
2019-04-27T11:59:01.689Z,20.11
2019-04-27T12:00:12.384Z,20.19
2019-04-27T12:01:16.867Z,20.14
2019-04-27T12:02:21.363Z,20.58
2019-04-27T12:03:25.892Z,20.50
2019-04-27T12:04:30.361Z,20.47
2019-04-27T12:05:36.283Z,20.29
2019-04-27T12:06:41.738Z,19.80
2019-04-27T12:07:47.842Z,19.46
2019-04-27T12:08:53.364Z,19.54
2019-04-27T12:09:57.835Z,19.29
2019-04-27T12:11:02.293Z,19.54
2019-04-27T12:12:13.513Z,19.47
2019-04-27T12:13:12.998Z,19.56
2019-04-27T12:14:17.752Z,19.64
2019-04-27T12:15:22.625Z,20.02
2019-04-27T12:16:27.135Z,20.04
2019-04-27T12:17:31.916Z,20.52
2019-04-27T12:18:36.414Z,20.46
2019-04-27T12:19:40.884Z,20.34
2019-04-27T12:20:45.916Z,20.24
2019-04-27T12:21:51.472Z,20.35
2019-04-27T12:22:56.317Z,19.75
2019-04-27T12:24:00.793Z,20.18
2019-04-27T12:25:07.991Z,20.32
2019-04-27T12:26:15.817Z,20.08
2019-04-27T12:27:27.645Z,20.47
2019-04-27T12:28:36.661Z,21.15
2019-04-27T12:29:59.037Z,20.98
2019-04-27T12:31:08.751Z,21.68
2019-04-27T12:32:13.258Z,21.51
2019-04-27T12:33:18.029Z,21.85
2019-04-27T12:34:22.522Z,22.04
2019-04-27T12:35:26.984Z,21.39
2019-04-27T12:36:31.447Z,21.87
2019-04-27T12:37:36.060Z,22.19
2019-04-27T12:38:40.538Z,22.70
2019-04-27T12:39:45.008Z,22.26
2019-04-27T12:40:49.468Z,22.52
2019-04-27T12:41:55.966Z,23.20
2019-04-27T12:43:00.458Z,22.85
2019-04-27T12:44:07.056Z,22.78
2019-04-27T12:45:12.263Z,22.46
2019-04-27T12:46:16.833Z,22.63
2019-04-27T12:47:21.463Z,22.63
2019-04-27T12:48:26.012Z,22.44
2019-04-27T12:49:30.621Z,22.44
2019-04-27T12:50:36.161Z,22.15
2019-04-27T12:51:40.727Z,22.19
2019-04-27T12:52:46.827Z,22.06
2019-04-27T12:53:55.964Z,22.07
2019-04-27T12:55:17.229Z,21.81
2019-04-27T12:56:39.702Z,22.67
2019-04-27T12:57:49.463Z,23.54
2019-04-27T12:58:56.428Z,23.43
2019-04-27T13:00:02.592Z,22.90
2019-04-27T13:01:12.014Z,22.19
2019-04-27T13:02:17.199Z,22.25
2019-04-27T13:03:21.985Z,22.49
2019-04-27T13:04:26.492Z,22.91
2019-04-27T13:05:30.943Z,22.94
2019-04-27T13:06:35.849Z,22.72
2019-04-27T13:07:41.612Z,22.07
2019-04-27T13:08:46.102Z,22.34
2019-04-27T13:09:50.874Z,22.50
2019-04-27T13:10:57.294Z,22.46
2019-04-27T13:12:02.873Z,22.42
2019-04-27T13:13:07.682Z,21.41
2019-04-27T13:14:12.159Z,21.58
2019-04-27T13:15:17.074Z,21.48
2019-04-27T13:16:21.819Z,21.38
2019-04-27T13:17:26.602Z,20.78
2019-04-27T13:18:31.228Z,20.86
2019-04-27T13:19:36.562Z,20.61
2019-04-27T13:20:41.142Z,20.37
2019-04-27T13:21:46.933Z,20.37
2019-04-27T13:22:51.539Z,20.36
2019-04-27T13:24:03.963Z,20.44
2019-04-27T13:25:02.332Z,20.80
2019-04-27T13:26:07.328Z,21.22
2019-04-27T13:27:12.151Z,21.04
2019-04-27T13:28:18.586Z,21.19
2019-04-27T13:29:23.136Z,21.08
2019-04-27T13:30:28.007Z,21.86
2019-04-27T13:31:32.877Z,22.14
2019-04-27T13:32:37.963Z,22.54
2019-04-27T13:33:42.920Z,22.84
2019-04-27T13:34:47.830Z,22.78
2019-04-27T13:35:52.666Z,22.52
2019-04-27T13:36:58.763Z,22.96
2019-04-27T13:38:03.388Z,23.05
2019-04-27T13:39:08.083Z,23.33
2019-04-27T13:40:17.188Z,23.82
2019-04-27T13:41:30.342Z,23.68
2019-04-27T13:42:29.594Z,23.13
2019-04-27T13:43:36.895Z,22.49
2019-04-27T13:44:41.803Z,22.15
2019-04-27T13:45:50.944Z,21.87
2019-04-27T13:47:08.762Z,21.59
2019-04-27T13:48:33.026Z,21.20
2019-04-27T13:49:48.165Z,20.98
2019-04-27T13:51:12.184Z,20.83
2019-04-27T13:52:18.584Z,20.46
2019-04-27T13:53:23.222Z,20.10
2019-04-27T13:54:29.199Z,19.95
2019-04-27T13:55:33.753Z,19.80
2019-04-27T13:56:38.533Z,19.96
2019-04-27T13:57:50.078Z,19.95
2019-04-27T13:58:49.155Z,19.88
2019-04-27T13:59:53.632Z,19.82
2019-04-27T14:00:59.066Z,19.73
2019-04-27T14:02:04.364Z,19.57
2019-04-27T14:03:08.821Z,19.37
2019-04-27T14:04:13.978Z,19.29
2019-04-27T14:05:18.819Z,19.08
2019-04-27T14:06:23.589Z,19.16
2019-04-27T14:07:28.335Z,18.97
2019-04-27T14:08:32.804Z,18.87
2019-04-27T14:09:39.158Z,18.77
2019-04-27T14:10:44.016Z,18.68
2019-04-27T14:11:48.767Z,18.67
2019-04-27T14:12:53.271Z,18.53
2019-04-27T14:13:58.735Z,18.44
2019-04-27T14:15:03.455Z,18.40
2019-04-27T14:16:08.664Z,18.30